createdAt,value
2022-11-20T00:00:11.069Z,278.30
2022-11-20T00:01:11.100Z,199.50
2022-11-20T00:02:11.110Z,221.10
2022-11-20T00:03:11.042Z,63.00
2022-11-20T00:04:11.056Z,79.70
2022-11-20T00:05:11.031Z,183.90
2022-11-20T00:06:11.049Z,176.10
2022-11-20T00:07:11.012Z,93.90
2022-11-20T00:08:11.008Z,148.00
2022-11-20T00:09:10.988Z,146.80
2022-11-20T00:10:10.981Z,197.90
2022-11-20T00:11:15.463Z,163.90
2022-11-20T00:12:11.937Z,108.80
2022-11-20T00:13:10.916Z,264.60
2022-11-20T00:14:10.918Z,269.90
2022-11-20T00:15:10.899Z,287.20
2022-11-20T00:16:10.946Z,324.40
2022-11-20T00:17:10.884Z,343.80
2022-11-20T00:18:10.892Z,387.60
2022-11-20T00:19:10.861Z,398.90
2022-11-20T00:20:10.869Z,397.30
2022-11-20T00:21:10.891Z,436.50
2022-11-20T00:22:10.855Z,455.50
2022-11-20T00:23:10.814Z,457.80
2022-11-20T00:24:10.838Z,463.90
2022-11-20T00:25:10.815Z,469.20
2022-11-20T00:26:10.836Z,467.70
2022-11-20T00:27:10.768Z,468.00
2022-11-20T00:28:10.812Z,364.40
2022-11-20T00:29:10.756Z,481.10
2022-11-20T00:30:14.637Z,463.60
2022-11-20T00:31:10.767Z,117.30
2022-11-20T00:32:10.727Z,152.40
2022-11-20T00:33:10.723Z,494.80
2022-11-20T00:34:10.708Z,427.10
2022-11-20T00:35:10.726Z,106.30
2022-11-20T00:36:10.722Z,327.00
2022-11-20T00:37:10.664Z,393.10
2022-11-20T00:38:10.684Z,470.90
2022-11-20T00:39:10.654Z,136.80
2022-11-20T00:40:10.650Z,116.10
2022-11-20T00:41:10.676Z,173.80
2022-11-20T00:42:10.619Z,548.20
2022-11-20T00:43:10.612Z,512.30
2022-11-20T00:44:10.601Z,162.10
2022-11-20T00:45:10.615Z,173.70
2022-11-20T00:46:10.646Z,333.30
2022-11-20T00:47:10.562Z,130.80
2022-11-20T00:48:10.551Z,169.00
2022-11-20T00:49:10.547Z,322.60
2022-11-20T00:50:10.535Z,531.40
2022-11-20T00:51:10.506Z,110.30
2022-11-20T00:52:10.542Z,172.60
2022-11-20T00:53:10.496Z,192.80
2022-11-20T00:54:10.482Z,556.20
2022-11-20T00:55:10.472Z,504.80
2022-11-20T00:56:10.491Z,116.30
2022-11-20T00:57:10.483Z,104.00
2022-11-20T00:58:14.289Z,144.10
2022-11-20T00:59:10.436Z,351.00
2022-11-20T01:00:10.415Z,560.90
2022-11-20T01:01:10.484Z,294.90
2022-11-20T01:02:10.449Z,122.70
2022-11-20T01:03:10.376Z,142.10
2022-11-20T01:04:10.391Z,533.80
2022-11-20T01:05:10.355Z,501.50
2022-11-20T01:06:10.365Z,109.20
2022-11-20T01:07:10.419Z,159.90
2022-11-20T01:08:10.352Z,251.00
2022-11-20T01:09:10.322Z,525.80
2022-11-20T01:10:10.328Z,255.30
2022-11-20T01:11:10.302Z,112.40
2022-11-20T01:12:10.346Z,99.70
2022-11-20T01:13:10.268Z,454.50
2022-11-20T01:14:10.287Z,464.00
2022-11-20T01:15:10.256Z,108.10
2022-11-20T01:16:10.251Z,120.30
2022-11-20T01:17:10.253Z,100.20
2022-11-20T01:18:10.224Z,392.20
2022-11-20T01:19:10.233Z,233.90
2022-11-20T01:20:10.204Z,110.60
2022-11-20T01:21:10.188Z,112.40
2022-11-20T01:22:10.192Z,130.60
2022-11-20T01:23:10.160Z,392.30
2022-11-20T01:24:10.143Z,125.00
2022-11-20T01:25:10.130Z,155.50
2022-11-20T01:26:10.141Z,123.20
2022-11-20T01:27:10.167Z,189.60
2022-11-20T01:28:10.109Z,137.30
2022-11-20T01:29:10.103Z,325.00
2022-11-20T01:30:10.075Z,332.00
2022-11-20T01:31:10.082Z,290.70
2022-11-20T01:32:10.104Z,96.10
2022-11-20T01:33:10.073Z,249.20
2022-11-20T01:34:10.032Z,480.90
2022-11-20T01:35:10.017Z,276.90
2022-11-20T01:36:10.014Z,125.50
2022-11-20T01:37:10.044Z,115.60
2022-11-20T01:38:09.998Z,140.00
2022-11-20T01:39:09.976Z,452.70
2022-11-20T01:40:09.968Z,515.30
2022-11-20T01:41:09.971Z,106.00
2022-11-20T01:42:10.589Z,108.50
2022-11-20T01:43:09.953Z,430.30
2022-11-20T01:44:09.932Z,486.60
2022-11-20T01:45:09.923Z,113.60
2022-11-20T01:46:09.907Z,170.20
2022-11-20T01:47:09.939Z,390.30
2022-11-20T01:48:09.898Z,423.80
2022-11-20T01:49:09.877Z,133.10
2022-11-20T01:50:09.856Z,171.90
2022-11-20T01:51:09.865Z,384.00
2022-11-20T01:52:09.887Z,328.20
2022-11-20T01:53:09.846Z,324.70
2022-11-20T01:54:09.823Z,123.40
2022-11-20T01:55:09.800Z,125.20
2022-11-20T01:56:09.794Z,109.70
2022-11-20T01:57:09.826Z,506.80
2022-11-20T01:58:09.782Z,245.30
2022-11-20T01:59:09.777Z,131.40
2022-11-20T02:00:09.774Z,169.30
2022-11-20T02:01:09.764Z,451.10
2022-11-20T02:02:09.756Z,133.60
2022-11-20T02:03:09.704Z,126.80
2022-11-20T02:04:09.710Z,459.50
2022-11-20T02:05:09.702Z,520.10
2022-11-20T02:06:09.684Z,142.10
2022-11-20T02:07:09.731Z,107.70
2022-11-20T02:08:09.710Z,126.50
2022-11-20T02:09:09.667Z,490.20
2022-11-20T02:10:09.649Z,451.10
2022-11-20T02:11:09.635Z,111.40
2022-11-20T02:12:09.634Z,117.00
2022-11-20T02:13:09.650Z,256.00
2022-11-20T02:14:09.602Z,104.50
2022-11-20T02:15:09.585Z,354.30
2022-11-20T02:16:09.585Z,453.20
2022-11-20T02:17:09.571Z,91.50
2022-11-20T02:18:09.587Z,121.60
2022-11-20T02:19:09.547Z,242.10
2022-11-20T02:20:09.539Z,418.90
2022-11-20T02:21:09.520Z,108.10
2022-11-20T02:22:09.521Z,102.40
2022-11-20T02:23:09.550Z,299.10
2022-11-20T02:24:09.482Z,444.80
2022-11-20T02:25:09.483Z,80.50
2022-11-20T02:26:09.454Z,106.20
2022-11-20T02:27:09.472Z,155.30
2022-11-20T02:28:09.489Z,182.60
2022-11-20T02:29:09.439Z,274.70
2022-11-20T02:30:09.445Z,280.80
2022-11-20T02:31:09.430Z,126.90
2022-11-20T02:32:09.394Z,301.90
2022-11-20T02:33:09.447Z,676.80
2022-11-20T02:34:09.389Z,659.80
2022-11-20T02:35:09.371Z,416.30
2022-11-20T02:36:09.349Z,401.80
2022-11-20T02:37:09.343Z,406.40
2022-11-20T02:38:09.353Z,630.50
2022-11-20T02:39:09.317Z,373.30
2022-11-20T02:40:09.320Z,366.10
2022-11-20T02:41:09.311Z,369.30
2022-11-20T02:42:09.310Z,203.40
2022-11-20T02:43:09.335Z,109.70
2022-11-20T02:44:09.259Z,303.70
2022-11-20T02:45:09.256Z,383.80
2022-11-20T02:46:09.271Z,363.10
2022-11-20T02:47:09.236Z,356.50
2022-11-20T02:48:09.230Z,358.80
2022-11-20T02:49:09.247Z,357.90
2022-11-20T02:50:09.198Z,357.50
2022-11-20T02:51:09.214Z,362.50
2022-11-20T02:52:09.191Z,367.60
2022-11-20T02:53:09.171Z,237.10
2022-11-20T02:54:09.185Z,133.00
2022-11-20T02:55:09.159Z,717.90
2022-11-20T02:56:09.143Z,755.30
2022-11-20T02:57:09.136Z,129.10
2022-11-20T02:58:09.137Z,177.10
2022-11-20T02:59:09.148Z,230.90
2022-11-20T03:00:09.101Z,269.10
2022-11-20T03:01:09.103Z,420.20
2022-11-20T03:02:09.053Z,377.50
2022-11-20T03:03:09.065Z,269.10
2022-11-20T03:04:09.078Z,292.90
2022-11-20T03:05:09.060Z,148.90
2022-11-20T03:06:09.028Z,339.80
2022-11-20T03:07:09.098Z,426.40
2022-11-20T03:08:09.007Z,314.00
2022-11-20T03:09:09.024Z,260.90
2022-11-20T03:10:08.991Z,320.70
2022-11-20T03:11:08.970Z,356.10
2022-11-20T03:12:08.945Z,359.00
2022-11-20T03:13:08.932Z,282.50
2022-11-20T03:14:08.948Z,411.00
2022-11-20T03:15:08.922Z,463.40
2022-11-20T03:16:08.909Z,255.70
2022-11-20T03:17:08.914Z,708.80
2022-11-20T03:18:08.907Z,672.60
2022-11-20T03:19:08.928Z,443.00
2022-11-20T03:20:08.861Z,167.10
2022-11-20T03:21:08.872Z,380.10
2022-11-20T03:22:08.841Z,378.60
2022-11-20T03:23:08.845Z,468.70
2022-11-20T03:24:08.858Z,185.00
2022-11-20T03:25:08.826Z,277.30
2022-11-20T03:26:08.798Z,975.10
2022-11-20T03:27:08.807Z,950.90
2022-11-20T03:28:08.777Z,877.80
2022-11-20T03:29:08.814Z,904.90
2022-11-20T03:30:08.772Z,831.80
2022-11-20T03:31:08.752Z,179.80
2022-11-20T03:32:08.765Z,472.10
2022-11-20T03:33:08.722Z,442.60
2022-11-20T03:34:08.747Z,252.80
2022-11-20T03:35:08.701Z,462.00
2022-11-20T03:36:08.707Z,455.20
2022-11-20T03:37:08.688Z,473.60
2022-11-20T03:38:08.661Z,508.50
2022-11-20T03:39:08.694Z,939.10
2022-11-20T03:40:08.634Z,1142.00
2022-11-20T03:41:08.648Z,987.10
2022-11-20T03:42:08.624Z,1287.10
2022-11-20T03:43:08.631Z,1012.60
2022-11-20T03:44:08.640Z,1181.10
2022-11-20T03:45:08.609Z,1111.10
2022-11-20T03:46:08.579Z,999.80
2022-11-20T03:47:08.561Z,1120.70
2022-11-20T03:48:08.541Z,1288.50
2022-11-20T03:49:08.570Z,759.00
2022-11-20T03:50:08.522Z,1759.30
2022-11-20T03:51:08.515Z,1125.20
2022-11-20T03:52:08.510Z,986.80
2022-11-20T03:53:08.509Z,884.00
2022-11-20T03:54:08.542Z,973.00
2022-11-20T03:55:08.482Z,815.60
2022-11-20T03:56:08.462Z,1999.90
2022-11-20T03:57:08.472Z,1776.20
2022-11-20T03:58:08.456Z,1999.90
2022-11-20T03:59:08.470Z,1999.90
2022-11-20T04:00:08.474Z,1999.90
2022-11-20T04:01:08.419Z,1999.90
2022-11-20T04:02:08.445Z,1999.90
2022-11-20T04:03:08.405Z,1999.90
2022-11-20T04:04:08.376Z,1999.90
2022-11-20T04:05:08.389Z,799.30
2022-11-20T04:06:08.361Z,1999.90
2022-11-20T04:07:08.404Z,1999.90
2022-11-20T04:08:08.343Z,1999.90
2022-11-20T04:09:08.330Z,1999.90
2022-11-20T04:10:08.329Z,1999.90
2022-11-20T04:11:08.299Z,1999.90
2022-11-20T04:12:08.294Z,1999.90
2022-11-20T04:13:08.283Z,1999.90
2022-11-20T04:14:08.276Z,1999.90
2022-11-20T04:15:08.314Z,1999.90
2022-11-20T04:16:08.226Z,1999.90
2022-11-20T04:17:08.270Z,1999.90
2022-11-20T04:18:08.215Z,1999.90
2022-11-20T04:19:08.229Z,1999.90
2022-11-20T04:20:08.201Z,1999.90
2022-11-20T04:21:08.229Z,1999.90
2022-11-20T04:22:08.159Z,1999.90
2022-11-20T04:23:08.165Z,1999.90
2022-11-20T04:24:08.145Z,1999.90
2022-11-20T04:25:08.138Z,1999.90
2022-11-20T04:26:08.153Z,1999.90
2022-11-20T04:27:08.109Z,1999.90
2022-11-20T04:28:08.117Z,1999.90
2022-11-20T04:29:08.111Z,1999.90
2022-11-20T04:30:08.098Z,1999.90
2022-11-20T04:31:08.129Z,1999.90
2022-11-20T04:32:08.080Z,1999.90
2022-11-20T04:33:08.067Z,1999.90
2022-11-20T04:34:08.034Z,1999.90
2022-11-20T04:35:08.038Z,1999.90
2022-11-20T04:36:08.068Z,1999.90
2022-11-20T04:37:08.030Z,1999.90
2022-11-20T04:38:08.000Z,1999.90
2022-11-20T04:39:07.998Z,1999.90
2022-11-20T04:40:07.977Z,1999.90
2022-11-20T04:41:08.008Z,1999.90
2022-11-20T04:42:07.954Z,1999.90
2022-11-20T04:43:07.946Z,1999.90
2022-11-20T04:44:07.944Z,1999.90
2022-11-20T04:45:07.922Z,1999.90
2022-11-20T04:46:07.941Z,1999.90
2022-11-20T04:47:07.906Z,1999.90
2022-11-20T04:48:07.898Z,1999.90
2022-11-20T04:49:07.875Z,1999.90
2022-11-20T04:50:07.938Z,1999.90
2022-11-20T04:51:07.893Z,1999.90
2022-11-20T04:52:07.845Z,1999.90
2022-11-20T04:53:07.842Z,1999.90
2022-11-20T04:54:07.821Z,1999.90
2022-11-20T04:55:07.826Z,1999.90
2022-11-20T04:56:07.844Z,1999.90
2022-11-20T04:57:12.916Z,1999.90
2022-11-20T04:58:08.785Z,1999.90
2022-11-20T04:59:07.759Z,1999.90
2022-11-20T05:00:07.743Z,1999.90
2022-11-20T05:01:07.817Z,1999.90
2022-11-20T05:02:07.705Z,1999.90
2022-11-20T05:03:07.710Z,1999.90
2022-11-20T05:04:07.714Z,1999.90
2022-11-20T05:05:07.720Z,1999.90
2022-11-20T05:06:07.726Z,1999.90
2022-11-20T05:07:07.704Z,1999.90
2022-11-20T05:08:07.658Z,1999.90
2022-11-20T05:09:07.656Z,1999.90
2022-11-20T05:10:07.636Z,1999.90
2022-11-20T05:11:07.645Z,1999.90
2022-11-20T05:12:07.649Z,1999.90
2022-11-20T05:13:07.621Z,1999.90
2022-11-20T05:14:07.594Z,1999.90
2022-11-20T05:15:07.606Z,1999.90
2022-11-20T05:16:07.576Z,1999.90
2022-11-20T05:17:07.598Z,1999.90
2022-11-20T05:18:07.551Z,1999.90
2022-11-20T05:19:07.545Z,1999.90
2022-11-20T05:20:07.533Z,1999.90
2022-11-20T05:21:07.511Z,1999.90
2022-11-20T05:22:07.532Z,1999.90
2022-11-20T05:23:07.502Z,1999.90
2022-11-20T05:24:07.468Z,1999.90
2022-11-20T05:25:07.486Z,1999.90
2022-11-20T05:26:07.458Z,1999.90
2022-11-20T05:27:07.475Z,1999.90
2022-11-20T05:28:07.434Z,1999.90
2022-11-20T05:29:08.407Z,1999.90
2022-11-20T05:30:07.409Z,1999.90
2022-11-20T05:31:07.422Z,1999.90
2022-11-20T05:32:07.407Z,1999.90
2022-11-20T05:33:07.377Z,1999.90
2022-11-20T05:34:07.375Z,1999.90
2022-11-20T05:35:07.359Z,1999.90
2022-11-20T05:36:07.369Z,1999.90
2022-11-20T05:37:07.358Z,1999.90
2022-11-20T05:38:07.312Z,1999.90
2022-11-20T05:39:07.296Z,1999.90
2022-11-20T05:40:07.295Z,1999.90
2022-11-20T05:41:07.297Z,1999.90
2022-11-20T05:42:07.319Z,1999.90
2022-11-20T05:43:07.277Z,1999.90
2022-11-20T05:44:07.259Z,1999.90
2022-11-20T05:45:07.262Z,1999.90
2022-11-20T05:46:07.245Z,1999.90
2022-11-20T05:47:07.244Z,1999.90
2022-11-20T05:48:07.315Z,1999.90
2022-11-20T05:49:07.208Z,1999.90
2022-11-20T05:50:07.196Z,1999.90
2022-11-20T05:51:07.190Z,1999.90
2022-11-20T05:52:07.220Z,1999.90
2022-11-20T05:53:07.167Z,1999.90
2022-11-20T05:54:07.161Z,1999.90
2022-11-20T05:55:07.136Z,1999.90
2022-11-20T05:56:07.140Z,1999.90
2022-11-20T05:57:07.117Z,1999.90
2022-11-20T05:58:07.137Z,1999.90
2022-11-20T05:59:07.087Z,1999.90
2022-11-20T06:00:07.097Z,1999.90
2022-11-20T06:01:07.083Z,1999.90
2022-11-20T06:02:07.063Z,1999.90
2022-11-20T06:03:07.078Z,1999.90
2022-11-20T06:04:07.031Z,1999.90
2022-11-20T06:05:07.035Z,1999.90
2022-11-20T06:06:07.012Z,1999.90
2022-11-20T06:07:07.055Z,1999.90
2022-11-20T06:08:07.039Z,343.20
2022-11-20T06:09:06.963Z,1999.90
2022-11-20T06:10:06.975Z,1999.90
2022-11-20T06:11:06.950Z,1999.90
2022-11-20T06:12:06.964Z,1999.90
2022-11-20T06:13:06.944Z,1999.90
2022-11-20T06:14:06.906Z,1999.90
2022-11-20T06:15:06.897Z,395.90
2022-11-20T06:16:06.898Z,1999.90
2022-11-20T06:17:06.886Z,1999.90
2022-11-20T06:18:06.912Z,1999.90
2022-11-20T06:19:06.875Z,1999.90
2022-11-20T06:20:06.853Z,402.20
2022-11-20T06:21:06.883Z,1999.90
2022-11-20T06:22:06.832Z,1999.90
2022-11-20T06:23:06.851Z,1999.90
2022-11-20T06:24:06.817Z,1999.90
2022-11-20T06:25:06.781Z,1999.90
2022-11-20T06:26:06.805Z,1999.90
2022-11-20T06:27:06.767Z,1999.90
2022-11-20T06:28:06.784Z,1999.90
2022-11-20T06:29:06.747Z,341.80
2022-11-20T06:30:06.749Z,1999.90
2022-11-20T06:31:06.739Z,1834.20
2022-11-20T06:32:06.714Z,1940.10
2022-11-20T06:33:06.726Z,1326.00
2022-11-20T06:34:06.695Z,1999.90
2022-11-20T06:35:06.686Z,1274.20
2022-11-20T06:36:10.615Z,1999.90
2022-11-20T06:37:06.690Z,1600.50
2022-11-20T06:38:06.697Z,673.30
2022-11-20T06:39:06.648Z,1999.90
2022-11-20T06:40:06.637Z,1999.90
2022-11-20T06:41:06.613Z,1999.90
2022-11-20T06:42:06.617Z,1999.90
2022-11-20T06:43:06.635Z,1999.90
2022-11-20T06:44:06.590Z,1999.90
2022-11-20T06:45:06.565Z,1999.90
2022-11-20T06:46:06.585Z,1999.90
2022-11-20T06:47:06.572Z,1999.90
2022-11-20T06:48:06.577Z,1999.90
2022-11-20T06:49:06.517Z,1136.80
2022-11-20T06:50:06.513Z,993.30
2022-11-20T06:51:06.498Z,888.60
2022-11-20T06:52:06.489Z,846.50
2022-11-20T06:53:06.522Z,849.30
2022-11-20T06:54:06.480Z,1033.50
2022-11-20T06:55:06.470Z,1999.90
2022-11-20T06:56:06.460Z,1730.30
2022-11-20T06:57:06.465Z,1891.30
2022-11-20T06:58:06.443Z,1999.90
2022-11-20T06:59:06.450Z,1152.30
2022-11-20T07:00:06.419Z,496.40
2022-11-20T07:01:06.453Z,1999.90
2022-11-20T07:02:06.404Z,853.50
2022-11-20T07:03:06.377Z,1999.90
2022-11-20T07:04:06.393Z,1512.90
2022-11-20T07:05:06.339Z,1529.40
2022-11-20T07:06:06.335Z,1357.50
2022-11-20T07:07:06.415Z,1304.10
2022-11-20T07:08:06.321Z,1221.30
2022-11-20T07:09:11.346Z,1185.60
2022-11-20T07:10:07.300Z,1264.10
2022-11-20T07:11:06.298Z,1207.60
2022-11-20T07:12:06.279Z,361.00
2022-11-20T07:13:06.268Z,477.20
2022-11-20T07:14:06.299Z,440.60
2022-11-20T07:15:06.240Z,165.70
2022-11-20T07:16:06.238Z,545.20
2022-11-20T07:17:06.211Z,607.00
2022-11-20T07:18:06.217Z,565.10
2022-11-20T07:19:06.236Z,541.30
2022-11-20T07:20:06.201Z,499.20
2022-11-20T07:21:06.177Z,114.90
2022-11-20T07:22:06.176Z,112.30
2022-11-20T07:23:06.160Z,94.80
2022-11-20T07:24:06.179Z,119.40
2022-11-20T07:25:06.122Z,100.00
2022-11-20T07:26:06.109Z,80.50
2022-11-20T07:27:06.097Z,84.90
2022-11-20T07:28:06.084Z,89.30
2022-11-20T07:29:06.129Z,80.20
2022-11-20T07:30:06.074Z,87.10
2022-11-20T07:31:06.108Z,93.60
2022-11-20T07:32:06.057Z,97.40
2022-11-20T07:33:06.046Z,115.80
2022-11-20T07:34:06.074Z,122.40
2022-11-20T07:35:06.007Z,99.20
2022-11-20T07:36:06.020Z,93.80
2022-11-20T07:37:10.206Z,85.80
2022-11-20T07:38:05.999Z,81.70
2022-11-20T07:39:06.015Z,81.50
2022-11-20T07:40:05.976Z,87.10
2022-11-20T07:41:05.973Z,79.80
2022-11-20T07:42:05.964Z,87.40
2022-11-20T07:43:05.923Z,82.40
2022-11-20T07:44:05.964Z,71.20
2022-11-20T07:45:05.904Z,63.70
2022-11-20T07:46:05.897Z,64.00
2022-11-20T07:47:05.890Z,51.70
2022-11-20T07:48:05.876Z,51.80
2022-11-20T07:49:05.896Z,56.20
2022-11-20T07:50:05.861Z,52.20
2022-11-20T07:51:05.848Z,62.90
2022-11-20T07:52:05.849Z,55.40
2022-11-20T07:53:05.838Z,60.40
2022-11-20T07:54:05.887Z,84.60
2022-11-20T07:55:05.791Z,69.90
2022-11-20T07:56:05.794Z,65.40
2022-11-20T07:57:05.778Z,109.00
2022-11-20T07:58:05.783Z,66.50
2022-11-20T07:59:05.788Z,72.80
2022-11-20T08:00:05.762Z,60.60
2022-11-20T08:01:05.761Z,75.20
2022-11-20T08:02:05.717Z,55.90
2022-11-20T08:03:05.706Z,73.60
2022-11-20T08:04:05.725Z,91.30
2022-11-20T08:05:05.686Z,82.40
2022-11-20T08:06:05.678Z,70.40
2022-11-20T08:07:05.766Z,54.60
2022-11-20T08:08:05.658Z,59.40
2022-11-20T08:09:05.676Z,54.30
2022-11-20T08:10:05.638Z,88.10
2022-11-20T08:11:05.645Z,59.50
2022-11-20T08:12:05.618Z,54.50
2022-11-20T08:13:05.615Z,55.80
2022-11-20T08:14:05.590Z,56.10
2022-11-20T08:15:11.316Z,46.40
2022-11-20T08:16:06.567Z,61.10
2022-11-20T08:17:05.552Z,44.80
2022-11-20T08:19:06.518Z,42.70
2022-11-20T08:20:05.617Z,37.40
2022-11-20T08:21:05.544Z,47.00
2022-11-20T08:22:05.517Z,41.20
2022-11-20T08:23:05.492Z,40.50
2022-11-20T08:24:05.480Z,53.80
2022-11-20T08:25:05.493Z,37.90
2022-11-20T08:26:05.460Z,25.40
2022-11-20T08:27:05.456Z,36.70
2022-11-20T08:28:15.690Z,36.20
2022-11-20T08:29:06.430Z,20.60
2022-11-20T08:30:05.454Z,22.20
2022-11-20T08:31:05.413Z,27.20
2022-11-20T08:32:05.395Z,22.40
2022-11-20T08:33:05.373Z,18.60
2022-11-20T08:34:09.196Z,18.50
2022-11-20T08:35:05.373Z,17.40
2022-11-20T08:36:05.356Z,18.70
2022-11-20T08:37:05.318Z,18.50
2022-11-20T08:38:05.344Z,17.30
2022-11-20T08:39:05.307Z,16.70
2022-11-20T08:40:05.323Z,19.70
2022-11-20T08:41:05.293Z,21.10
2022-11-20T08:42:05.279Z,20.70
2022-11-20T08:43:05.314Z,21.70
2022-11-20T08:44:05.265Z,21.20
2022-11-20T08:45:05.283Z,16.60
2022-11-20T08:46:05.247Z,26.80
2022-11-20T08:47:05.226Z,22.10
2022-11-20T08:48:05.249Z,21.20
2022-11-20T08:49:05.198Z,22.30
2022-11-20T08:50:05.236Z,23.50
2022-11-20T08:51:05.204Z,22.30
2022-11-20T08:52:05.165Z,21.30
2022-11-20T08:53:05.162Z,21.20
2022-11-20T08:54:05.154Z,18.90
2022-11-20T08:55:05.162Z,20.60
2022-11-20T08:56:05.134Z,21.20
2022-11-20T08:57:05.118Z,16.00
2022-11-20T08:58:05.112Z,18.10
2022-11-20T09:00:07.167Z,18.30
2022-11-20T09:01:05.125Z,19.30
2022-11-20T09:02:05.063Z,16.70
2022-11-20T09:03:05.046Z,19.00
2022-11-20T09:04:05.052Z,20.20
2022-11-20T09:05:05.048Z,19.90
2022-11-20T09:06:05.005Z,21.10
2022-11-20T09:07:05.051Z,19.40
2022-11-20T09:08:04.984Z,19.70
2022-11-20T09:09:18.638Z,22.60
2022-11-20T09:11:05.953Z,24.30
2022-11-20T09:12:04.954Z,24.50
2022-11-20T09:13:04.903Z,23.90
2022-11-20T09:14:04.899Z,26.50
2022-11-20T09:15:04.889Z,26.60
2022-11-20T09:16:04.909Z,21.70
2022-11-20T09:17:04.874Z,28.30
2022-11-20T09:18:04.864Z,21.30
2022-11-20T09:19:34.208Z,22.40
2022-11-20T09:20:05.858Z,22.20
2022-11-20T09:21:04.909Z,19.70
2022-11-20T09:22:04.823Z,20.00
2022-11-20T09:23:04.824Z,19.50
2022-11-20T09:24:04.819Z,19.30
2022-11-20T09:25:04.777Z,20.30
2022-11-20T09:26:04.816Z,15.50
2022-11-20T09:27:04.771Z,17.90
2022-11-20T09:28:04.742Z,17.50
2022-11-20T09:29:04.751Z,18.80
2022-11-20T09:30:04.753Z,16.70
2022-11-20T09:31:04.745Z,17.10
2022-11-20T09:32:04.700Z,21.10
2022-11-20T09:33:04.713Z,16.40
2022-11-20T09:34:04.686Z,16.80
2022-11-20T09:35:04.695Z,14.80
2022-11-20T09:36:04.709Z,13.50
2022-11-20T09:37:07.596Z,13.50
2022-11-20T09:38:04.633Z,13.20
2022-11-20T09:39:04.639Z,11.50
2022-11-20T09:40:04.629Z,11.90
2022-11-20T09:41:04.650Z,12.70
2022-11-20T09:42:04.599Z,11.50
2022-11-20T09:43:04.597Z,11.30
2022-11-20T09:44:04.573Z,12.20
2022-11-20T09:45:04.574Z,12.30
2022-11-20T09:46:04.596Z,11.80
2022-11-20T09:47:04.567Z,12.10
2022-11-20T09:48:04.547Z,12.10
2022-11-20T09:49:04.516Z,12.30
2022-11-20T09:50:04.496Z,11.60
2022-11-20T09:51:04.517Z,11.30
2022-11-20T09:52:04.470Z,13.20
2022-11-20T09:53:04.476Z,13.90
2022-11-20T09:54:04.451Z,12.40
2022-11-20T09:55:04.452Z,13.00
2022-11-20T09:56:04.489Z,13.30
2022-11-20T09:57:04.438Z,13.50
2022-11-20T09:58:04.422Z,14.30
2022-11-20T09:59:04.412Z,13.90
2022-11-20T10:00:04.390Z,15.20
2022-11-20T10:01:04.469Z,14.30
2022-11-20T10:02:04.366Z,14.70
2022-11-20T10:03:04.357Z,15.80
2022-11-20T10:04:04.356Z,14.50
2022-11-20T10:05:04.338Z,14.80
2022-11-20T10:06:04.354Z,14.30
2022-11-20T10:07:30.844Z,13.60
2022-11-20T10:08:05.381Z,13.40
2022-11-20T10:09:04.300Z,12.90
2022-11-20T10:10:04.287Z,12.80
2022-11-20T10:11:04.301Z,12.30
2022-11-20T10:12:04.255Z,13.60
2022-11-20T10:13:05.043Z,13.30
2022-11-20T10:14:04.241Z,13.20
2022-11-20T10:15:04.244Z,13.90
2022-11-20T10:16:04.271Z,11.80
2022-11-20T10:17:04.217Z,12.80
2022-11-20T10:18:04.182Z,11.40
2022-11-20T10:19:04.193Z,12.00
2022-11-20T10:20:04.176Z,12.40
2022-11-20T10:21:04.163Z,11.90
2022-11-20T10:22:04.166Z,13.50
2022-11-20T10:23:04.133Z,12.20
2022-11-20T10:24:04.128Z,12.60
2022-11-20T10:25:04.112Z,12.00
2022-11-20T10:26:04.087Z,13.30
2022-11-20T10:27:04.115Z,11.30
2022-11-20T10:28:04.059Z,11.20
2022-11-20T10:29:08.685Z,9.90
2022-11-20T10:30:05.043Z,10.40
2022-11-20T10:31:04.053Z,11.20
2022-11-20T10:32:04.081Z,11.70
2022-11-20T10:33:04.063Z,10.70
2022-11-20T10:34:12.447Z,10.70
2022-11-20T10:35:05.004Z,9.80
2022-11-20T10:36:03.988Z,8.90
2022-11-20T10:37:04.013Z,11.10
2022-11-20T10:38:03.979Z,10.50
2022-11-20T10:39:03.951Z,9.60
2022-11-20T10:40:03.928Z,9.30
2022-11-20T10:41:03.938Z,8.90
2022-11-20T10:42:03.951Z,9.20
2022-11-20T10:43:03.930Z,8.60
2022-11-20T10:44:03.893Z,8.50
2022-11-20T10:45:06.959Z,7.80
2022-11-20T10:46:03.873Z,7.90
2022-11-20T10:47:03.909Z,7.70
2022-11-20T10:48:03.839Z,7.90
2022-11-20T10:49:03.858Z,8.60
2022-11-20T10:50:03.834Z,8.50
2022-11-20T10:51:03.814Z,8.60
2022-11-20T10:52:03.841Z,9.60
2022-11-20T10:53:03.794Z,9.40
2022-11-20T10:54:03.794Z,8.90
2022-11-20T10:55:03.769Z,9.40
2022-11-20T10:56:03.774Z,8.40
2022-11-20T10:57:03.805Z,9.20
2022-11-20T10:58:03.736Z,9.80
2022-11-20T10:59:03.736Z,10.40
2022-11-20T11:00:03.711Z,10.50
2022-11-20T11:01:03.745Z,10.10
2022-11-20T11:02:03.714Z,9.00
2022-11-20T11:03:03.681Z,11.00
2022-11-20T11:04:03.659Z,10.80
2022-11-20T11:05:03.689Z,10.70
2022-11-20T11:06:03.659Z,11.10
2022-11-20T11:07:03.718Z,11.70
2022-11-20T11:08:03.636Z,10.80
2022-11-20T11:09:03.618Z,10.00
2022-11-20T11:10:03.622Z,9.00
2022-11-20T11:11:03.616Z,9.90
2022-11-20T11:12:07.151Z,10.30
2022-11-20T11:13:03.599Z,11.30
2022-11-20T11:14:03.547Z,12.60
2022-11-20T11:15:03.554Z,11.50
2022-11-20T11:16:03.519Z,13.50
2022-11-20T11:17:03.559Z,11.70
2022-11-20T11:18:03.500Z,12.00
2022-11-20T11:19:03.523Z,12.30
2022-11-20T11:20:03.500Z,11.70
2022-11-20T11:21:03.482Z,12.70
2022-11-20T11:22:03.492Z,13.00
2022-11-20T11:23:03.457Z,12.60
2022-11-20T11:24:26.953Z,14.00
2022-11-20T11:25:04.428Z,17.60
2022-11-20T11:26:03.427Z,16.60
2022-11-20T11:27:03.446Z,14.70
2022-11-20T11:28:03.387Z,15.40
2022-11-20T11:29:03.390Z,18.70
2022-11-20T11:30:03.374Z,22.50
2022-11-20T11:31:03.391Z,23.40
2022-11-20T11:32:03.345Z,13.90
2022-11-20T11:33:03.397Z,13.30
2022-11-20T11:34:03.335Z,20.30
2022-11-20T11:35:03.344Z,14.50
2022-11-20T11:36:03.331Z,14.40
2022-11-20T11:37:03.277Z,15.90
2022-11-20T11:38:03.303Z,13.00
2022-11-20T11:39:03.271Z,13.10
2022-11-20T11:40:23.301Z,13.80
2022-11-20T11:41:04.240Z,17.00
2022-11-20T11:42:03.222Z,16.80
2022-11-20T11:43:03.260Z,18.00
2022-11-20T11:44:03.210Z,16.10
2022-11-20T11:45:03.216Z,14.20
2022-11-20T11:46:03.188Z,12.80
2022-11-20T11:47:03.197Z,12.50
2022-11-20T11:48:03.210Z,9.30
2022-11-20T11:49:03.154Z,10.10
2022-11-20T11:50:03.160Z,10.40
2022-11-20T11:51:03.142Z,8.60
2022-11-20T11:52:03.162Z,11.20
2022-11-20T11:53:03.165Z,10.00
2022-11-20T11:54:03.087Z,11.00
2022-11-20T11:55:07.164Z,10.50
2022-11-20T11:56:04.069Z,10.10
2022-11-20T11:57:03.091Z,9.90
2022-11-20T11:58:03.103Z,10.20
2022-11-20T11:59:03.090Z,10.20
2022-11-20T12:00:03.041Z,11.00
2022-11-20T12:01:03.053Z,9.90
2022-11-20T12:02:03.065Z,10.10
2022-11-20T12:03:03.039Z,10.20
2022-11-20T12:04:02.991Z,9.70
2022-11-20T12:05:02.975Z,8.90
2022-11-20T12:06:02.999Z,8.40
2022-11-20T12:07:18.301Z,9.00
2022-11-20T12:08:08.113Z,8.20
2022-11-20T12:09:03.908Z,7.60
2022-11-20T12:10:02.935Z,8.70
2022-11-20T12:11:02.928Z,8.80
2022-11-20T12:12:02.908Z,8.90
2022-11-20T12:13:02.875Z,9.00
2022-11-20T12:14:02.900Z,8.50
2022-11-20T12:15:02.855Z,8.90
2022-11-20T12:16:02.841Z,8.90
2022-11-20T12:17:02.872Z,8.30
2022-11-20T12:18:02.828Z,8.60
2022-11-20T12:19:02.845Z,8.00
2022-11-20T12:20:02.808Z,8.70
2022-11-20T12:21:02.797Z,8.20
2022-11-20T12:22:05.157Z,7.70
2022-11-20T12:23:02.781Z,8.30
2022-11-20T12:24:02.801Z,7.90
2022-11-20T12:25:02.752Z,8.00
2022-11-20T12:26:02.739Z,7.70
2022-11-20T12:27:02.752Z,8.50
2022-11-20T12:28:02.703Z,8.50
2022-11-20T12:29:02.776Z,8.10
2022-11-20T12:30:02.690Z,8.00
2022-11-20T12:31:02.696Z,8.50
2022-11-20T12:32:02.669Z,8.20
2022-11-20T12:33:02.650Z,8.00
2022-11-20T12:34:02.690Z,8.60
2022-11-20T12:35:05.061Z,8.60
2022-11-20T12:36:03.630Z,8.00
2022-11-20T12:37:02.602Z,8.70